createdAt,value
2023-07-16T00:02:40.718Z,4.07
2023-07-16T00:06:02.616Z,5.22
2023-07-16T00:09:25.277Z,3.60
2023-07-16T00:12:47.226Z,3.67
2023-07-16T00:16:10.383Z,4.90
2023-07-16T00:19:32.326Z,3.22
2023-07-16T00:22:54.666Z,3.83
2023-07-16T00:26:16.494Z,2.15
2023-07-16T00:29:38.663Z,4.35
2023-07-16T00:33:02.035Z,3.25
2023-07-16T00:36:23.913Z,4.30
2023-07-16T00:39:45.565Z,2.20
2023-07-16T00:43:07.346Z,2.17
2023-07-16T00:46:29.264Z,2.75
2023-07-16T00:49:52.930Z,2.78
2023-07-16T00:53:15.060Z,2.00
2023-07-16T00:56:37.438Z,2.63
2023-07-16T00:59:59.178Z,2.15
2023-07-16T01:03:20.825Z,2.08
2023-07-16T01:06:49.038Z,2.03
2023-07-16T01:10:11.422Z,5.00
2023-07-16T01:13:33.982Z,4.40
2023-07-16T01:17:00.088Z,2.72
2023-07-16T01:20:22.127Z,3.45
2023-07-16T01:24:16.125Z,2.35
2023-07-16T01:28:01.978Z,3.45
2023-07-16T01:31:25.712Z,2.80
2023-07-16T01:34:47.594Z,3.50
2023-07-16T01:38:12.216Z,2.67
2023-07-16T01:41:33.870Z,3.47
2023-07-16T01:44:55.842Z,3.50
2023-07-16T01:48:32.511Z,2.28
2023-07-16T01:51:54.126Z,2.15
2023-07-16T01:55:16.008Z,3.47
2023-07-16T01:58:37.895Z,2.17
2023-07-16T02:01:59.623Z,3.05
2023-07-16T02:05:22.654Z,2.65
2023-07-16T02:08:44.798Z,2.35
2023-07-16T02:12:07.182Z,2.05
2023-07-16T02:15:28.772Z,2.50
2023-07-16T02:18:50.309Z,2.42
2023-07-16T02:22:13.360Z,3.08
2023-07-16T02:25:35.363Z,2.42
2023-07-16T02:28:57.019Z,2.28
2023-07-16T02:32:19.013Z,2.75
2023-07-16T02:35:40.951Z,2.80
2023-07-16T02:39:04.621Z,4.18
2023-07-16T02:42:26.452Z,3.13
2023-07-16T02:45:48.155Z,3.55
2023-07-16T02:49:10.077Z,2.53
2023-07-16T02:52:31.798Z,3.22
2023-07-16T02:55:54.932Z,3.65
2023-07-16T02:59:16.684Z,3.65
2023-07-16T03:02:38.827Z,4.95
2023-07-16T03:06:00.771Z,4.07
2023-07-16T03:09:22.457Z,3.67
2023-07-16T03:12:45.407Z,3.20
2023-07-16T03:16:07.401Z,5.10
2023-07-16T03:19:29.312Z,2.33
2023-07-16T03:22:51.043Z,2.58
2023-07-16T03:26:12.974Z,3.35
2023-07-16T03:29:36.637Z,3.08
2023-07-16T03:32:58.283Z,2.92
2023-07-16T03:36:21.240Z,2.70
2023-07-16T03:39:43.269Z,3.92
2023-07-16T03:43:05.072Z,2.47
2023-07-16T03:46:28.256Z,2.78
2023-07-16T03:49:50.300Z,2.95
2023-07-16T03:53:12.155Z,2.20
2023-07-16T03:56:34.256Z,2.10
2023-07-16T03:59:56.329Z,2.03
2023-07-16T04:03:19.403Z,2.58
2023-07-16T04:06:41.204Z,2.90
2023-07-16T04:10:03.041Z,2.67
2023-07-16T04:13:24.973Z,2.90
2023-07-16T04:16:46.691Z,1.73
2023-07-16T04:20:11.080Z,1.67
2023-07-16T04:23:33.022Z,1.60
2023-07-16T04:26:54.724Z,2.88
2023-07-16T04:30:16.426Z,2.58
2023-07-16T04:33:38.448Z,2.72
2023-07-16T04:37:01.853Z,3.45
2023-07-16T04:40:23.882Z,3.47
2023-07-16T04:43:45.677Z,3.13
2023-07-16T04:47:07.992Z,1.88
2023-07-16T04:50:30.100Z,1.45
2023-07-16T04:53:54.099Z,1.88
2023-07-16T04:57:15.946Z,2.97
2023-07-16T05:00:37.592Z,1.10
2023-07-16T05:03:59.675Z,1.80
2023-07-16T05:07:21.180Z,1.30
2023-07-16T05:10:44.375Z,1.40
2023-07-16T05:14:06.816Z,1.92
2023-07-16T05:17:28.771Z,3.08
2023-07-16T05:20:50.766Z,1.30
2023-07-16T05:24:12.380Z,3.45
2023-07-16T05:27:36.828Z,2.55
2023-07-16T05:31:02.434Z,1.45
2023-07-16T05:34:24.527Z,1.90
2023-07-16T05:37:46.455Z,1.75
2023-07-16T05:41:08.117Z,1.15
2023-07-16T05:44:31.385Z,1.90
2023-07-16T05:47:53.336Z,4.28
2023-07-16T05:51:15.214Z,1.80
2023-07-16T05:54:37.115Z,2.30
2023-07-16T05:57:58.864Z,0.90
2023-07-16T06:01:22.021Z,1.30
2023-07-16T06:04:44.046Z,1.65
2023-07-16T06:08:06.267Z,0.95
2023-07-16T06:11:28.215Z,1.55
2023-07-16T06:14:50.121Z,3.50
2023-07-16T06:18:15.155Z,1.25
2023-07-16T06:21:38.428Z,2.53
2023-07-16T06:25:00.643Z,1.27
2023-07-16T06:28:22.519Z,3.08
2023-07-16T06:31:45.670Z,1.42
2023-07-16T06:35:09.933Z,1.92
2023-07-16T06:38:32.288Z,1.40
2023-07-16T06:41:54.022Z,1.90
2023-07-16T06:45:15.954Z,1.20
2023-07-16T06:48:37.616Z,1.20
2023-07-16T06:52:03.122Z,2.30
2023-07-16T06:55:24.648Z,1.60
2023-07-16T06:58:46.550Z,1.02
2023-07-16T07:02:08.866Z,1.55
2023-07-16T07:05:30.570Z,2.15
2023-07-16T07:08:53.916Z,3.20
2023-07-16T07:12:15.851Z,1.98
2023-07-16T07:15:37.793Z,1.48
2023-07-16T07:18:59.874Z,1.90
2023-07-16T07:22:23.072Z,2.67
2023-07-16T07:25:50.460Z,3.30
2023-07-16T07:29:12.045Z,0.82
2023-07-16T07:32:33.977Z,4.63
2023-07-16T07:35:56.677Z,1.17
2023-07-16T07:39:19.058Z,3.13
2023-07-16T07:42:42.433Z,1.85
2023-07-16T07:46:04.712Z,1.15
2023-07-16T07:49:26.334Z,1.98
2023-07-16T07:52:48.205Z,1.65
2023-07-16T07:56:10.042Z,2.63
2023-07-16T07:59:33.409Z,1.90
2023-07-16T08:02:55.421Z,2.33
2023-07-16T08:06:18.226Z,1.60
2023-07-16T08:09:40.359Z,3.72
2023-07-16T08:13:03.165Z,2.58
2023-07-16T08:16:26.540Z,3.05
2023-07-16T08:19:48.629Z,1.70
2023-07-16T08:23:10.755Z,1.55
2023-07-16T08:26:32.664Z,0.93
2023-07-16T08:29:54.438Z,1.88
2023-07-16T08:33:17.652Z,0.98
2023-07-16T08:36:40.001Z,3.33
2023-07-16T08:40:01.844Z,1.52
2023-07-16T08:43:24.633Z,2.67
2023-07-16T08:46:46.713Z,1.25
2023-07-16T08:50:11.646Z,1.40
2023-07-16T08:53:33.627Z,2.13
2023-07-16T08:56:55.612Z,1.40
2023-07-16T09:00:18.890Z,0.88
2023-07-16T09:03:40.809Z,2.15
2023-07-16T09:07:04.173Z,2.97
2023-07-16T09:10:26.210Z,2.22
2023-07-16T09:13:48.087Z,2.33
2023-07-16T09:17:10.174Z,1.98
2023-07-16T09:20:32.931Z,1.02
2023-07-16T09:23:55.939Z,4.63
2023-07-16T09:27:18.354Z,0.88
2023-07-16T09:30:40.492Z,2.83
2023-07-16T09:34:02.193Z,1.52
2023-07-16T09:37:23.916Z,1.25
2023-07-16T09:40:47.752Z,1.15
2023-07-16T09:44:09.992Z,1.77
2023-07-16T09:47:31.907Z,2.15
2023-07-16T09:50:55.517Z,1.10
2023-07-16T09:54:17.567Z,2.55
2023-07-16T09:57:44.061Z,1.10
2023-07-16T10:01:07.133Z,0.90
2023-07-16T10:04:39.470Z,2.05
2023-07-16T10:08:02.184Z,2.35
2023-07-16T10:11:24.137Z,2.30
2023-07-16T10:14:48.959Z,2.20
2023-07-16T10:18:10.712Z,1.25
2023-07-16T10:21:39.700Z,8.23
2023-07-16T10:25:01.853Z,2.45
2023-07-16T10:28:23.685Z,3.08
2023-07-16T10:31:48.709Z,2.05
2023-07-16T10:35:11.740Z,1.83
2023-07-16T10:38:43.258Z,2.00
2023-07-16T10:42:05.397Z,2.72
2023-07-16T10:45:27.355Z,3.08
2023-07-16T10:48:50.774Z,1.77
2023-07-16T10:52:12.763Z,1.83
2023-07-16T10:55:39.242Z,1.30
2023-07-16T10:59:01.098Z,1.77
2023-07-16T11:02:24.596Z,2.95
2023-07-16T11:05:49.621Z,4.00
2023-07-16T11:09:12.045Z,2.85
2023-07-16T11:12:34.042Z,1.90
2023-07-16T11:15:55.973Z,1.83
2023-07-16T11:19:22.280Z,1.98
2023-07-16T11:22:45.711Z,2.85
2023-07-16T11:26:07.641Z,2.58
2023-07-16T11:29:37.217Z,2.53
2023-07-16T11:33:01.235Z,2.55
2023-07-16T11:36:23.467Z,3.90
2023-07-16T11:39:48.370Z,5.45
2023-07-16T11:43:11.973Z,2.05
2023-07-16T11:46:35.874Z,3.10
2023-07-16T11:49:58.620Z,1.88
2023-07-16T11:53:20.461Z,1.48
2023-07-16T11:56:43.424Z,3.22
2023-07-16T12:00:06.911Z,2.78
2023-07-16T12:03:28.671Z,4.05
2023-07-16T12:06:50.471Z,3.65
2023-07-16T12:10:12.419Z,2.92
2023-07-16T12:13:35.451Z,1.67
2023-07-16T12:16:57.806Z,2.38
2023-07-16T12:20:19.400Z,3.03
2023-07-16T12:23:41.057Z,1.35
2023-07-16T12:27:03.092Z,3.13
2023-07-16T12:30:26.819Z,3.13
2023-07-16T12:33:50.079Z,1.80
2023-07-16T12:37:12.722Z,3.67
2023-07-16T12:40:40.687Z,7.00
2023-07-16T12:44:02.391Z,2.30
2023-07-16T12:47:25.875Z,2.42
2023-07-16T12:50:47.838Z,1.70
2023-07-16T12:54:09.433Z,2.63
2023-07-16T12:57:31.357Z,2.35
2023-07-16T13:00:53.062Z,1.73
2023-07-16T13:04:16.360Z,3.20
2023-07-16T13:07:40.841Z,2.47
2023-07-16T13:11:03.046Z,2.35
2023-07-16T13:14:24.884Z,1.77
2023-07-16T13:17:46.666Z,1.40
2023-07-16T13:21:12.003Z,2.15
2023-07-16T13:24:33.791Z,1.88
2023-07-16T13:27:55.487Z,2.42
2023-07-16T13:31:17.642Z,2.55
2023-07-16T13:34:39.668Z,5.20
2023-07-16T13:38:03.673Z,12.52
2023-07-16T13:41:25.740Z,2.60
2023-07-16T13:44:47.387Z,3.97
2023-07-16T13:48:09.156Z,1.88
2023-07-16T13:51:31.232Z,1.90
2023-07-16T13:54:55.496Z,2.90
2023-07-16T13:58:17.170Z,2.88
2023-07-16T14:01:44.957Z,1.83
2023-07-16T14:05:07.350Z,1.58
2023-07-16T14:08:29.224Z,2.90
2023-07-16T14:11:52.356Z,1.65
2023-07-16T14:15:14.152Z,1.85
2023-07-16T14:18:36.104Z,3.08
2023-07-16T14:21:57.746Z,3.65
2023-07-16T14:25:19.473Z,5.13
2023-07-16T14:28:42.474Z,2.67
2023-07-16T14:32:04.644Z,3.42
2023-07-16T14:35:36.440Z,4.68
2023-07-16T14:38:59.313Z,3.42
2023-07-16T14:42:21.203Z,1.60
2023-07-16T14:45:44.612Z,6.07
2023-07-16T14:49:07.577Z,1.70
2023-07-16T14:52:29.189Z,3.40
2023-07-16T14:55:51.278Z,2.58
2023-07-16T14:59:12.874Z,3.90
2023-07-16T15:02:36.025Z,4.35
2023-07-16T15:05:59.252Z,3.55
2023-07-16T15:09:21.357Z,2.40
2023-07-16T15:12:43.426Z,3.50
2023-07-16T15:16:05.980Z,4.07
2023-07-16T15:19:29.009Z,2.15
2023-07-16T15:22:50.911Z,2.90
2023-07-16T15:26:14.267Z,3.78
2023-07-16T15:29:36.391Z,2.30
2023-07-16T15:32:58.086Z,3.85
2023-07-16T15:36:21.564Z,4.75
2023-07-16T15:39:43.351Z,3.35
2023-07-16T15:43:05.006Z,2.65
2023-07-16T15:46:27.076Z,2.00
2023-07-16T15:49:48.807Z,3.53
2023-07-16T15:53:12.266Z,4.13
2023-07-16T15:56:34.377Z,3.47
2023-07-16T15:59:56.102Z,3.63
2023-07-16T16:03:18.312Z,2.10
2023-07-16T16:06:40.300Z,4.28
2023-07-16T16:10:03.246Z,3.38
2023-07-16T16:13:27.546Z,4.13
2023-07-16T16:17:05.003Z,3.28
2023-07-16T16:20:28.381Z,4.40
2023-07-16T16:23:50.085Z,3.58
2023-07-16T16:27:13.252Z,3.00
2023-07-16T16:30:35.298Z,5.65
2023-07-16T16:33:57.260Z,3.05
2023-07-16T16:37:18.897Z,4.45
2023-07-16T16:40:41.596Z,3.40
2023-07-16T16:44:05.315Z,2.47
2023-07-16T16:47:27.057Z,5.10
2023-07-16T16:50:48.799Z,4.47
2023-07-16T16:54:10.877Z,5.88
2023-07-16T16:57:33.338Z,4.63
2023-07-16T17:00:57.184Z,3.67
2023-07-16T17:04:19.052Z,4.68
2023-07-16T17:07:40.997Z,5.00
2023-07-16T17:11:02.921Z,5.13
2023-07-16T17:14:25.000Z,3.03
2023-07-16T17:17:48.511Z,5.18
2023-07-16T17:21:10.226Z,4.10
2023-07-16T17:24:32.154Z,3.20
2023-07-16T17:27:53.919Z,3.55
2023-07-16T17:31:15.834Z,4.03
2023-07-16T17:34:41.072Z,3.85
2023-07-16T17:38:02.768Z,3.92
2023-07-16T17:41:24.458Z,6.30
2023-07-16T17:44:49.064Z,4.72
2023-07-16T17:48:10.738Z,4.78
2023-07-16T17:51:33.781Z,7.75
2023-07-16T17:54:55.785Z,2.97
2023-07-16T17:58:17.654Z,3.95
2023-07-16T18:01:39.576Z,4.00
2023-07-16T18:05:01.746Z,2.65
2023-07-16T18:08:25.433Z,3.08
2023-07-16T18:11:47.872Z,5.22
2023-07-16T18:15:11.605Z,5.53
2023-07-16T18:18:34.804Z,6.95
2023-07-16T18:22:19.746Z,5.72
2023-07-16T18:25:41.386Z,5.10
2023-07-16T18:29:03.925Z,3.13
2023-07-16T18:32:25.936Z,5.53
2023-07-16T18:35:50.744Z,9.23
2023-07-16T18:39:12.759Z,6.38
2023-07-16T18:42:35.909Z,4.45
2023-07-16T18:45:59.250Z,4.32
2023-07-16T18:49:20.803Z,7.53
2023-07-16T18:52:42.686Z,6.22
2023-07-16T18:56:05.360Z,4.22
2023-07-16T18:59:29.210Z,9.27
2023-07-16T19:02:51.040Z,5.15
2023-07-16T19:06:13.170Z,4.45
2023-07-16T19:09:34.957Z,5.90
2023-07-16T19:12:56.651Z,5.95
2023-07-16T19:16:20.561Z,3.53
2023-07-16T19:19:42.796Z,5.65
2023-07-16T19:23:04.607Z,5.13
2023-07-16T19:26:26.402Z,6.00
2023-07-16T19:29:47.993Z,5.07
2023-07-16T19:33:11.268Z,6.57
2023-07-16T19:36:33.250Z,5.10
2023-07-16T19:39:55.132Z,8.18
2023-07-16T19:43:17.235Z,8.23
2023-07-16T19:46:39.022Z,5.78
2023-07-16T19:50:06.329Z,7.47
2023-07-16T19:53:27.917Z,9.25
2023-07-16T19:56:49.615Z,9.27
2023-07-16T20:00:13.245Z,11.50
2023-07-16T20:03:35.089Z,9.93
2023-07-16T20:07:10.796Z,6.15
2023-07-16T20:10:33.828Z,4.93
2023-07-16T20:13:55.768Z,6.57
2023-07-16T20:17:18.467Z,6.47
2023-07-16T20:20:40.135Z,5.55
2023-07-16T20:24:04.328Z,6.05
2023-07-16T20:27:26.548Z,7.10
2023-07-16T20:30:48.726Z,7.85
2023-07-16T20:34:10.646Z,6.32
2023-07-16T20:37:32.848Z,6.93
2023-07-16T20:40:57.275Z,7.20
2023-07-16T20:44:18.915Z,9.45
2023-07-16T20:47:40.764Z,10.35
2023-07-16T20:51:02.395Z,7.22
2023-07-16T20:54:27.142Z,7.60
2023-07-16T20:57:51.474Z,8.65
2023-07-16T21:01:14.886Z,9.20
2023-07-16T21:04:37.107Z,10.15
2023-07-16T21:07:58.743Z,10.48
2023-07-16T21:11:21.022Z,9.75
2023-07-16T21:14:43.976Z,7.82
2023-07-16T21:18:05.876Z,8.40
2023-07-16T21:21:27.617Z,7.22
2023-07-16T21:24:50.607Z,7.95
2023-07-16T21:28:12.202Z,6.97
2023-07-16T21:31:35.698Z,7.35
2023-07-16T21:34:57.213Z,9.73
2023-07-16T21:38:19.092Z,7.43
2023-07-16T21:41:41.068Z,6.72
2023-07-16T21:45:03.227Z,5.95
2023-07-16T21:48:27.398Z,6.45
2023-07-16T21:51:49.365Z,7.43
2023-07-16T21:55:12.534Z,7.72
2023-07-16T21:58:34.648Z,6.55
2023-07-16T22:01:56.500Z,9.00
2023-07-16T22:05:20.165Z,6.13
2023-07-16T22:08:42.180Z,8.00
2023-07-16T22:12:04.034Z,7.50
2023-07-16T22:15:25.848Z,7.50
2023-07-16T22:18:47.641Z,7.28
2023-07-16T22:22:10.837Z,7.78
2023-07-16T22:25:33.012Z,8.07
2023-07-16T22:28:55.003Z,7.75
2023-07-16T22:32:16.698Z,8.50
2023-07-16T22:35:39.217Z,9.02
2023-07-16T22:39:02.454Z,9.15
2023-07-16T22:42:26.093Z,8.25
2023-07-16T22:45:48.067Z,10.43
2023-07-16T22:49:09.861Z,9.93
2023-07-16T22:52:31.557Z,9.43
2023-07-16T22:55:54.665Z,9.88
2023-07-16T22:59:16.685Z,7.28
2023-07-16T23:02:38.408Z,7.57
2023-07-16T23:06:00.962Z,10.07
2023-07-16T23:09:22.941Z,8.80
2023-07-16T23:12:46.496Z,8.68
2023-07-16T23:16:08.945Z,9.07
2023-07-16T23:19:32.042Z,9.75
2023-07-16T23:22:53.921Z,9.05
2023-07-16T23:26:15.874Z,9.50
2023-07-16T23:29:40.407Z,9.80
2023-07-16T23:33:02.288Z,9.48
2023-07-16T23:36:24.182Z,9.02
2023-07-16T23:39:46.122Z,9.30
2023-07-16T23:43:07.877Z,8.85
2023-07-16T23:46:31.306Z,9.55
2023-07-16T23:49:53.052Z,11.52
2023-07-16T23:53:14.589Z,17.60
2023-07-16T23:56:36.558Z,11.05
2023-07-16T23:59:58.388Z,10.73
